sensor_id;sensor_type;location;lat;lon;timestamp;P1;durP1;ratioP1;P2;durP2;ratioP2
17239;SDS011;9943;54.378;18.604;2022-07-29T00:00:52;4.70;;;3.35;;
17239;SDS011;9943;54.378;18.604;2022-07-29T00:03:21;6.25;;;3.60;;
17239;SDS011;9943;54.378;18.604;2022-07-29T00:05:52;6.05;;;2.97;;
17239;SDS011;9943;54.378;18.604;2022-07-29T00:08:28;4.43;;;3.30;;
17239;SDS011;9943;54.378;18.604;2022-07-29T00:10:57;6.22;;;3.05;;
17239;SDS011;9943;54.378;18.604;2022-07-29T00:13:24;5.20;;;2.90;;
17239;SDS011;9943;54.378;18.604;2022-07-29T00:15:55;3.78;;;2.65;;
17239;SDS011;9943;54.378;18.604;2022-07-29T00:18:26;5.13;;;3.10;;
17239;SDS011;9943;54.378;18.604;2022-07-29T00:20:57;5.47;;;3.17;;
17239;SDS011;9943;54.378;18.604;2022-07-29T00:23:29;6.88;;;3.53;;
17239;SDS011;9943;54.378;18.604;2022-07-29T00:26:00;6.10;;;3.30;;
17239;SDS011;9943;54.378;18.604;2022-07-29T00:28:30;6.25;;;3.13;;
17239;SDS011;9943;54.378;18.604;2022-07-29T00:31:00;5.57;;;3.72;;
17239;SDS011;9943;54.378;18.604;2022-07-29T00:33:39;4.18;;;3.03;;
17239;SDS011;9943;54.378;18.604;2022-07-29T00:36:11;5.50;;;3.08;;
17239;SDS011;9943;54.378;18.604;2022-07-29T00:38:38;4.97;;;2.97;;
17239;SDS011;9943;54.378;18.604;2022-07-29T00:41:19;8.10;;;3.40;;
17239;SDS011;9943;54.378;18.604;2022-07-29T00:43:51;8.38;;;3.78;;
17239;SDS011;9943;54.378;18.604;2022-07-29T00:46:20;4.97;;;3.38;;
17239;SDS011;9943;54.378;18.604;2022-07-29T00:49:05;4.60;;;3.10;;
17239;SDS011;9943;54.378;18.604;2022-07-29T00:51:40;4.18;;;3.13;;
17239;SDS011;9943;54.378;18.604;2022-07-29T00:54:10;5.30;;;3.10;;
17239;SDS011;9943;54.378;18.604;2022-07-29T00:56:40;4.45;;;3.53;;
17239;SDS011;9943;54.378;18.604;2022-07-29T00:59:20;3.80;;;3.25;;
17239;SDS011;9943;54.378;18.604;2022-07-29T01:01:49;6.97;;;3.63;;
17239;SDS011;9943;54.378;18.604;2022-07-29T01:04:17;7.60;;;3.58;;
17239;SDS011;9943;54.378;18.604;2022-07-29T01:09:51;4.97;;;3.05;;
17239;SDS011;9943;54.378;18.604;2022-07-29T01:12:23;5.47;;;3.65;;
17239;SDS011;9943;54.378;18.604;2022-07-29T01:14:55;5.25;;;3.28;;
17239;SDS011;9943;54.378;18.604;2022-07-29T01:17:26;4.97;;;3.33;;
17239;SDS011;9943;54.378;18.604;2022-07-29T01:20:00;6.63;;;3.00;;
17239;SDS011;9943;54.378;18.604;2022-07-29T01:25:40;7.32;;;3.40;;
17239;SDS011;9943;54.378;18.604;2022-07-29T01:28:39;5.80;;;3.10;;
17239;SDS011;9943;54.378;18.604;2022-07-29T01:31:13;5.15;;;3.28;;
17239;SDS011;9943;54.378;18.604;2022-07-29T01:33:46;10.30;;;3.53;;
17239;SDS011;9943;54.378;18.604;2022-07-29T01:36:30;6.32;;;3.20;;
17239;SDS011;9943;54.378;18.604;2022-07-29T01:39:08;6.72;;;3.00;;
17239;SDS011;9943;54.378;18.604;2022-07-29T01:41:48;8.90;;;3.63;;
17239;SDS011;9943;54.378;18.604;2022-07-29T01:44:27;4.30;;;3.15;;
17239;SDS011;9943;54.378;18.604;2022-07-29T01:47:05;5.22;;;3.33;;
17239;SDS011;9943;54.378;18.604;2022-07-29T01:49:41;5.22;;;3.13;;
17239;SDS011;9943;54.378;18.604;2022-07-29T01:52:19;4.57;;;2.97;;
17239;SDS011;9943;54.378;18.604;2022-07-29T01:54:52;8.52;;;3.42;;
17239;SDS011;9943;54.378;18.604;2022-07-29T01:57:24;4.15;;;3.13;;
17239;SDS011;9943;54.378;18.604;2022-07-29T01:59:56;6.53;;;3.10;;
17239;SDS011;9943;54.378;18.604;2022-07-29T02:02:28;7.55;;;3.45;;
17239;SDS011;9943;54.378;18.604;2022-07-29T02:05:00;3.58;;;3.28;;
17239;SDS011;9943;54.378;18.604;2022-07-29T02:07:31;3.90;;;3.03;;
17239;SDS011;9943;54.378;18.604;2022-07-29T02:10:06;5.57;;;3.20;;
17239;SDS011;9943;54.378;18.604;2022-07-29T02:12:36;5.43;;;3.35;;
17239;SDS011;9943;54.378;18.604;2022-07-29T02:15:14;7.03;;;3.00;;
17239;SDS011;9943;54.378;18.604;2022-07-29T02:17:51;5.18;;;3.15;;
17239;SDS011;9943;54.378;18.604;2022-07-29T02:20:25;6.70;;;4.07;;
17239;SDS011;9943;54.378;18.604;2022-07-29T02:22:53;5.35;;;3.03;;
17239;SDS011;9943;54.378;18.604;2022-07-29T02:25:33;4.90;;;3.35;;
17239;SDS011;9943;54.378;18.604;2022-07-29T02:28:07;5.68;;;3.88;;
17239;SDS011;9943;54.378;18.604;2022-07-29T02:30:41;5.50;;;3.20;;
17239;SDS011;9943;54.378;18.604;2022-07-29T02:33:13;6.65;;;3.40;;
17239;SDS011;9943;54.378;18.604;2022-07-29T02:35:47;8.60;;;3.67;;
17239;SDS011;9943;54.378;18.604;2022-07-29T02:38:20;5.40;;;3.50;;
17239;SDS011;9943;54.378;18.604;2022-07-29T02:41:10;3.50;;;3.17;;
17239;SDS011;9943;54.378;18.604;2022-07-29T02:43:43;6.30;;;3.60;;
17239;SDS011;9943;54.378;18.604;2022-07-29T02:46:23;7.18;;;3.80;;
17239;SDS011;9943;54.378;18.604;2022-07-29T02:48:58;6.75;;;3.17;;
17239;SDS011;9943;54.378;18.604;2022-07-29T02:51:33;4.65;;;3.95;;
17239;SDS011;9943;54.378;18.604;2022-07-29T02:54:07;7.50;;;3.40;;
17239;SDS011;9943;54.378;18.604;2022-07-29T02:56:41;6.22;;;3.42;;
17239;SDS011;9943;54.378;18.604;2022-07-29T02:59:17;4.90;;;3.80;;
17239;SDS011;9943;54.378;18.604;2022-07-29T03:01:57;5.47;;;3.47;;
17239;SDS011;9943;54.378;18.604;2022-07-29T03:04:27;4.90;;;3.28;;
17239;SDS011;9943;54.378;18.604;2022-07-29T03:06:59;6.78;;;3.75;;
17239;SDS011;9943;54.378;18.604;2022-07-29T03:09:29;6.65;;;3.70;;
17239;SDS011;9943;54.378;18.604;2022-07-29T03:11:59;3.83;;;3.45;;
17239;SDS011;9943;54.378;18.604;2022-07-29T03:14:33;6.45;;;3.60;;
17239;SDS011;9943;54.378;18.604;2022-07-29T03:17:05;8.68;;;4.38;;
17239;SDS011;9943;54.378;18.604;2022-07-29T03:19:34;7.40;;;3.38;;
17239;SDS011;9943;54.378;18.604;2022-07-29T03:22:03;6.65;;;3.97;;
17239;SDS011;9943;54.378;18.604;2022-07-29T03:24:35;5.53;;;3.63;;
17239;SDS011;9943;54.378;18.604;2022-07-29T03:27:03;5.70;;;3.90;;
17239;SDS011;9943;54.378;18.604;2022-07-29T03:29:36;6.28;;;3.88;;
17239;SDS011;9943;54.378;18.604;2022-07-29T03:32:07;4.80;;;3.40;;
17239;SDS011;9943;54.378;18.604;2022-07-29T03:34:36;5.40;;;3.47;;
17239;SDS011;9943;54.378;18.604;2022-07-29T03:37:06;6.82;;;3.47;;
17239;SDS011;9943;54.378;18.604;2022-07-29T03:39:39;5.80;;;3.65;;
17239;SDS011;9943;54.378;18.604;2022-07-29T03:42:10;6.88;;;3.75;;
17239;SDS011;9943;54.378;18.604;2022-07-29T03:44:44;6.00;;;3.50;;
17239;SDS011;9943;54.378;18.604;2022-07-29T03:47:17;5.20;;;3.35;;
17239;SDS011;9943;54.378;18.604;2022-07-29T03:49:57;6.18;;;4.18;;
17239;SDS011;9943;54.378;18.604;2022-07-29T03:52:29;5.85;;;3.90;;
17239;SDS011;9943;54.378;18.604;2022-07-29T03:54:58;6.13;;;3.97;;
17239;SDS011;9943;54.378;18.604;2022-07-29T03:57:28;8.52;;;4.13;;
17239;SDS011;9943;54.378;18.604;2022-07-29T04:00:02;6.78;;;4.07;;
17239;SDS011;9943;54.378;18.604;2022-07-29T04:02:41;7.45;;;3.60;;
17239;SDS011;9943;54.378;18.604;2022-07-29T04:05:13;7.25;;;3.67;;
17239;SDS011;9943;54.378;18.604;2022-07-29T04:07:46;9.23;;;3.67;;
17239;SDS011;9943;54.378;18.604;2022-07-29T04:10:29;6.60;;;3.08;;
17239;SDS011;9943;54.378;18.604;2022-07-29T04:13:00;5.15;;;3.65;;
17239;SDS011;9943;54.378;18.604;2022-07-29T04:15:28;4.47;;;3.13;;
17239;SDS011;9943;54.378;18.604;2022-07-29T04:18:03;4.15;;;3.22;;
17239;SDS011;9943;54.378;18.604;2022-07-29T04:20:32;3.72;;;3.10;;
17239;SDS011;9943;54.378;18.604;2022-07-29T04:23:00;4.78;;;3.10;;
17239;SDS011;9943;54.378;18.604;2022-07-29T04:25:29;5.20;;;3.20;;
17239;SDS011;9943;54.378;18.604;2022-07-29T04:27:57;9.88;;;2.90;;
17239;SDS011;9943;54.378;18.604;2022-07-29T04:30:31;5.78;;;2.97;;
17239;SDS011;9943;54.378;18.604;2022-07-29T04:33:01;5.40;;;3.10;;
17239;SDS011;9943;54.378;18.604;2022-07-29T04:35:30;4.07;;;2.90;;
17239;SDS011;9943;54.378;18.604;2022-07-29T04:38:01;4.40;;;3.00;;
17239;SDS011;9943;54.378;18.604;2022-07-29T04:40:29;6.68;;;3.75;;
17239;SDS011;9943;54.378;18.604;2022-07-29T04:43:01;5.60;;;3.10;;
17239;SDS011;9943;54.378;18.604;2022-07-29T04:45:29;5.13;;;3.75;;
17239;SDS011;9943;54.378;18.604;2022-07-29T04:47:58;4.25;;;3.03;;
17239;SDS011;9943;54.378;18.604;2022-07-29T04:50:29;4.57;;;3.13;;
17239;SDS011;9943;54.378;18.604;2022-07-29T04:52:58;7.05;;;2.83;;
17239;SDS011;9943;54.378;18.604;2022-07-29T04:55:30;5.50;;;3.08;;
17239;SDS011;9943;54.378;18.604;2022-07-29T04:58:03;5.35;;;2.20;;
17239;SDS011;9943;54.378;18.604;2022-07-29T05:00:34;4.72;;;1.90;;
17239;SDS011;9943;54.378;18.604;2022-07-29T05:03:06;4.35;;;1.83;;
17239;SDS011;9943;54.378;18.604;2022-07-29T05:05:41;1.52;;;1.42;;
17239;SDS011;9943;54.378;18.604;2022-07-29T05:08:12;2.28;;;1.70;;
17239;SDS011;9943;54.378;18.604;2022-07-29T05:10:44;2.90;;;1.70;;
17239;SDS011;9943;54.378;18.604;2022-07-29T05:13:13;3.72;;;1.70;;
17239;SDS011;9943;54.378;18.604;2022-07-29T05:15:42;3.30;;;1.48;;
17239;SDS011;9943;54.378;18.604;2022-07-29T05:18:10;2.58;;;1.75;;
17239;SDS011;9943;54.378;18.604;2022-07-29T05:20:44;4.93;;;1.40;;
17239;SDS011;9943;54.378;18.604;2022-07-29T05:23:13;4.07;;;1.45;;
17239;SDS011;9943;54.378;18.604;2022-07-29T05:25:41;3.33;;;1.50;;
17239;SDS011;9943;54.378;18.604;2022-07-29T05:28:10;5.53;;;1.50;;
17239;SDS011;9943;54.378;18.604;2022-07-29T05:30:41;3.72;;;1.50;;
17239;SDS011;9943;54.378;18.604;2022-07-29T05:33:11;2.58;;;1.38;;
17239;SDS011;9943;54.378;18.604;2022-07-29T05:35:40;2.53;;;1.42;;
17239;SDS011;9943;54.378;18.604;2022-07-29T05:38:11;4.60;;;1.27;;
17239;SDS011;9943;54.378;18.604;2022-07-29T05:40:44;2.70;;;1.20;;
17239;SDS011;9943;54.378;18.604;2022-07-29T05:43:20;3.10;;;1.33;;
17239;SDS011;9943;54.378;18.604;2022-07-29T05:45:51;2.38;;;1.40;;
17239;SDS011;9943;54.378;18.604;2022-07-29T05:48:18;3.05;;;1.25;;
17239;SDS011;9943;54.378;18.604;2022-07-29T05:50:51;1.20;;;1.10;;
17239;SDS011;9943;54.378;18.604;2022-07-29T05:53:23;1.45;;;1.10;;
17239;SDS011;9943;54.378;18.604;2022-07-29T05:56:02;5.25;;;1.25;;
17239;SDS011;9943;54.378;18.604;2022-07-29T05:58:34;0.82;;;0.70;;
17239;SDS011;9943;54.378;18.604;2022-07-29T06:01:05;2.28;;;0.93;;
17239;SDS011;9943;54.378;18.604;2022-07-29T06:03:54;2.22;;;1.30;;
17239;SDS011;9943;54.378;18.604;2022-07-29T06:06:30;3.97;;;1.10;;
17239;SDS011;9943;54.378;18.604;2022-07-29T06:09:03;4.65;;;1.30;;
17239;SDS011;9943;54.378;18.604;2022-07-29T06:11:34;2.83;;;1.30;;
17239;SDS011;9943;54.378;18.604;2022-07-29T06:14:05;3.40;;;1.02;;
17239;SDS011;9943;54.378;18.604;2022-07-29T06:16:35;3.00;;;1.23;;
17239;SDS011;9943;54.378;18.604;2022-07-29T06:19:05;2.17;;;0.70;;
17239;SDS011;9943;54.378;18.604;2022-07-29T06:21:34;2.85;;;0.80;;
17239;SDS011;9943;54.378;18.604;2022-07-29T06:27:01;2.88;;;0.98;;
17239;SDS011;9943;54.378;18.604;2022-07-29T06:29:29;1.77;;;0.90;;
17239;SDS011;9943;54.378;18.604;2022-07-29T06:32:13;1.58;;;0.90;;
17239;SDS011;9943;54.378;18.604;2022-07-29T06:34:41;1.67;;;1.00;;
17239;SDS011;9943;54.378;18.604;2022-07-29T06:37:14;1.65;;;0.90;;
17239;SDS011;9943;54.378;18.604;2022-07-29T06:39:44;0.98;;;0.85;;
17239;SDS011;9943;54.378;18.604;2022-07-29T06:42:18;1.88;;;0.80;;
17239;SDS011;9943;54.378;18.604;2022-07-29T06:44:49;1.60;;;0.90;;
17239;SDS011;9943;54.378;18.604;2022-07-29T06:47:18;1.20;;;1.00;;
17239;SDS011;9943;54.378;18.604;2022-07-29T06:49:52;0.70;;;0.70;;
17239;SDS011;9943;54.378;18.604;2022-07-29T06:52:23;2.38;;;0.90;;
17239;SDS011;9943;54.378;18.604;2022-07-29T06:54:52;1.30;;;0.85;;
17239;SDS011;9943;54.378;18.604;2022-07-29T06:57:28;1.50;;;0.88;;
17239;SDS011;9943;54.378;18.604;2022-07-29T07:00:00;1.30;;;1.00;;
17239;SDS011;9943;54.378;18.604;2022-07-29T07:02:35;2.28;;;1.45;;
17239;SDS011;9943;54.378;18.604;2022-07-29T07:05:07;0.90;;;0.90;;
17239;SDS011;9943;54.378;18.604;2022-07-29T07:07:37;1.38;;;1.00;;
17239;SDS011;9943;54.378;18.604;2022-07-29T07:10:08;3.10;;;1.20;;
17239;SDS011;9943;54.378;18.604;2022-07-29T07:12:43;1.20;;;0.90;;
17239;SDS011;9943;54.378;18.604;2022-07-29T07:15:12;1.60;;;0.60;;
17239;SDS011;9943;54.378;18.604;2022-07-29T07:17:41;4.68;;;1.15;;
17239;SDS011;9943;54.378;18.604;2022-07-29T07:20:11;1.52;;;0.90;;
17239;SDS011;9943;54.378;18.604;2022-07-29T07:22:46;2.42;;;0.80;;
17239;SDS011;9943;54.378;18.604;2022-07-29T07:25:22;1.55;;;1.00;;
17239;SDS011;9943;54.378;18.604;2022-07-29T07:28:10;2.35;;;1.10;;
17239;SDS011;9943;54.378;18.604;2022-07-29T07:30:39;1.20;;;0.88;;
17239;SDS011;9943;54.378;18.604;2022-07-29T07:33:10;1.95;;;0.98;;
17239;SDS011;9943;54.378;18.604;2022-07-29T07:35:43;0.88;;;0.60;;
17239;SDS011;9943;54.378;18.604;2022-07-29T07:38:20;0.90;;;0.75;;
17239;SDS011;9943;54.378;18.604;2022-07-29T07:40:48;2.38;;;0.82;;
17239;SDS011;9943;54.378;18.604;2022-07-29T07:43:22;3.92;;;0.90;;
17239;SDS011;9943;54.378;18.604;2022-07-29T07:46:03;3.00;;;0.70;;
17239;SDS011;9943;54.378;18.604;2022-07-29T07:48:34;1.02;;;0.70;;
17239;SDS011;9943;54.378;18.604;2022-07-29T07:51:03;2.80;;;0.68;;
17239;SDS011;9943;54.378;18.604;2022-07-29T07:53:38;1.52;;;0.60;;
17239;SDS011;9943;54.378;18.604;2022-07-29T07:56:07;1.30;;;0.80;;
17239;SDS011;9943;54.378;18.604;2022-07-29T08:01:32;2.45;;;0.93;;
17239;SDS011;9943;54.378;18.604;2022-07-29T08:04:03;2.58;;;1.20;;
17239;SDS011;9943;54.378;18.604;2022-07-29T08:06:34;2.15;;;0.90;;
17239;SDS011;9943;54.378;18.604;2022-07-29T08:09:04;2.35;;;1.13;;
17239;SDS011;9943;54.378;18.604;2022-07-29T08:11:33;3.45;;;1.10;;
17239;SDS011;9943;54.378;18.604;2022-07-29T08:14:03;2.78;;;0.77;;
17239;SDS011;9943;54.378;18.604;2022-07-29T08:16:40;1.15;;;0.60;;
17239;SDS011;9943;54.378;18.604;2022-07-29T08:19:12;2.75;;;0.63;;
17239;SDS011;9943;54.378;18.604;2022-07-29T08:21:40;1.23;;;0.80;;
17239;SDS011;9943;54.378;18.604;2022-07-29T08:24:09;2.53;;;0.90;;
17239;SDS011;9943;54.378;18.604;2022-07-29T08:26:55;0.90;;;0.80;;
17239;SDS011;9943;54.378;18.604;2022-07-29T08:29:26;1.40;;;0.70;;
17239;SDS011;9943;54.378;18.604;2022-07-29T08:31:59;1.67;;;1.02;;
17239;SDS011;9943;54.378;18.604;2022-07-29T08:34:29;1.90;;;0.75;;
17239;SDS011;9943;54.378;18.604;2022-07-29T08:36:58;1.50;;;0.90;;
17239;SDS011;9943;54.378;18.604;2022-07-29T08:39:28;2.50;;;1.00;;
17239;SDS011;9943;54.378;18.604;2022-07-29T08:41:58;7.03;;;1.15;;
17239;SDS011;9943;54.378;18.604;2022-07-29T08:44:32;3.95;;;0.98;;
17239;SDS011;9943;54.378;18.604;2022-07-29T08:47:04;2.65;;;0.90;;
17239;SDS011;9943;54.378;18.604;2022-07-29T08:49:48;1.05;;;0.75;;
17239;SDS011;9943;54.378;18.604;2022-07-29T08:52:21;1.95;;;0.73;;
17239;SDS011;9943;54.378;18.604;2022-07-29T08:54:55;6.68;;;1.05;;
17239;SDS011;9943;54.378;18.604;2022-07-29T08:57:25;2.70;;;1.10;;
17239;SDS011;9943;54.378;18.604;2022-07-29T08:59:54;1.65;;;1.10;;
17239;SDS011;9943;54.378;18.604;2022-07-29T09:02:24;2.97;;;0.90;;
17239;SDS011;9943;54.378;18.604;2022-07-29T09:04:58;2.97;;;0.90;;
17239;SDS011;9943;54.378;18.604;2022-07-29T09:07:30;2.35;;;1.02;;
17239;SDS011;9943;54.378;18.604;2022-07-29T09:10:01;2.22;;;1.15;;
17239;SDS011;9943;54.378;18.604;2022-07-29T09:12:29;1.98;;;0.90;;
17239;SDS011;9943;54.378;18.604;2022-07-29T09:14:57;2.38;;;1.55;;
17239;SDS011;9943;54.378;18.604;2022-07-29T09:17:41;2.00;;;0.73;;
17239;SDS011;9943;54.378;18.604;2022-07-29T09:20:12;2.08;;;0.80;;
17239;SDS011;9943;54.378;18.604;2022-07-29T09:22:41;1.20;;;0.80;;
17239;SDS011;9943;54.378;18.604;2022-07-29T09:25:11;1.17;;;0.80;;
17239;SDS011;9943;54.378;18.604;2022-07-29T09:27:40;4.93;;;1.20;;
17239;SDS011;9943;54.378;18.604;2022-07-29T09:30:10;1.10;;;1.00;;
17239;SDS011;9943;54.378;18.604;2022-07-29T09:32:58;3.78;;;0.82;;
17239;SDS011;9943;54.378;18.604;2022-07-29T09:35:31;2.28;;;0.93;;
17239;SDS011;9943;54.378;18.604;2022-07-29T09:38:16;3.05;;;1.05;;
17239;SDS011;9943;54.378;18.604;2022-07-29T09:40:44;0.82;;;0.75;;
17239;SDS011;9943;54.378;18.604;2022-07-29T09:43:23;1.58;;;0.68;;
17239;SDS011;9943;54.378;18.604;2022-07-29T09:45:52;3.17;;;0.93;;
17239;SDS011;9943;54.378;18.604;2022-07-29T09:51:29;3.92;;;0.82;;
17239;SDS011;9943;54.378;18.604;2022-07-29T09:54:21;0.95;;;0.80;;
17239;SDS011;9943;54.378;18.604;2022-07-29T09:56:54;1.05;;;0.80;;
17239;SDS011;9943;54.378;18.604;2022-07-29T09:59:41;0.73;;;0.63;;
17239;SDS011;9943;54.378;18.604;2022-07-29T10:02:29;4.78;;;1.20;;
17239;SDS011;9943;54.378;18.604;2022-07-29T10:05:19;3.03;;;0.98;;
17239;SDS011;9943;54.378;18.604;2022-07-29T10:07:53;1.95;;;0.93;;
17239;SDS011;9943;54.378;18.604;2022-07-29T10:10:23;4.10;;;1.00;;
17239;SDS011;9943;54.378;18.604;2022-07-29T10:12:53;2.78;;;0.95;;
17239;SDS011;9943;54.378;18.604;2022-07-29T10:15:25;2.47;;;1.00;;
17239;SDS011;9943;54.378;18.604;2022-07-29T10:17:58;2.38;;;1.08;;
17239;SDS011;9943;54.378;18.604;2022-07-29T10:20:27;4.97;;;1.27;;
17239;SDS011;9943;54.378;18.604;2022-07-29T10:22:57;1.08;;;0.80;;
17239;SDS011;9943;54.378;18.604;2022-07-29T10:25:28;1.27;;;0.75;;
17239;SDS011;9943;54.378;18.604;2022-07-29T10:27:58;0.98;;;0.80;;
17239;SDS011;9943;54.378;18.604;2022-07-29T10:30:31;0.70;;;0.70;;
17239;SDS011;9943;54.378;18.604;2022-07-29T10:33:10;0.95;;;0.77;;
17239;SDS011;9943;54.378;18.604;2022-07-29T10:35:54;0.82;;;0.80;;
17239;SDS011;9943;54.378;18.604;2022-07-29T10:38:34;0.70;;;0.70;;
17239;SDS011;9943;54.378;18.604;2022-07-29T10:41:19;1.58;;;0.68;;
17239;SDS011;9943;54.378;18.604;2022-07-29T10:43:55;4.78;;;1.13;;
17239;SDS011;9943;54.378;18.604;2022-07-29T10:46:27;3.60;;;0.77;;
17239;SDS011;9943;54.378;18.604;2022-07-29T10:49:13;2.25;;;0.70;;
17239;SDS011;9943;54.378;18.604;2022-07-29T10:51:57;2.38;;;0.88;;
17239;SDS011;9943;54.378;18.604;2022-07-29T10:57:30;0.60;;;0.60;;
17239;SDS011;9943;54.378;18.604;2022-07-29T11:00:28;2.58;;;0.90;;
17239;SDS011;9943;54.378;18.604;2022-07-29T11:02:59;1.33;;;0.65;;
17239;SDS011;9943;54.378;18.604;2022-07-29T11:05:40;1.63;;;1.05;;
17239;SDS011;9943;54.378;18.604;2022-07-29T11:08:26;1.45;;;1.10;;
17239;SDS011;9943;54.378;18.604;2022-07-29T11:13:49;0.95;;;0.88;;
17239;SDS011;9943;54.378;18.604;2022-07-29T11:16:20;0.70;;;0.70;;
17239;SDS011;9943;54.378;18.604;2022-07-29T11:21:44;1.90;;;0.80;;
17239;SDS011;9943;54.378;18.604;2022-07-29T11:24:18;2.10;;;0.90;;
17239;SDS011;9943;54.378;18.604;2022-07-29T11:32:37;2.35;;;0.82;;
17239;SDS011;9943;54.378;18.604;2022-07-29T11:35:15;3.65;;;1.13;;
17239;SDS011;9943;54.378;18.604;2022-07-29T11:43:47;2.97;;;0.75;;
17239;SDS011;9943;54.378;18.604;2022-07-29T11:46:17;0.85;;;0.70;;
17239;SDS011;9943;54.378;18.604;2022-07-29T11:48:51;3.17;;;0.90;;
17239;SDS011;9943;54.378;18.604;2022-07-29T11:51:19;1.05;;;0.70;;
17239;SDS011;9943;54.378;18.604;2022-07-29T11:53:50;1.08;;;1.00;;
17239;SDS011;9943;54.378;18.604;2022-07-29T11:56:29;1.38;;;1.25;;
17239;SDS011;9943;54.378;18.604;2022-07-29T11:59:04;1.15;;;1.05;;
17239;SDS011;9943;54.378;18.604;2022-07-29T12:01:35;0.75;;;0.70;;
17239;SDS011;9943;54.378;18.604;2022-07-29T12:04:08;2.80;;;0.98;;
17239;SDS011;9943;54.378;18.604;2022-07-29T12:06:48;0.85;;;0.70;;
17239;SDS011;9943;54.378;18.604;2022-07-29T12:09:20;0.65;;;0.65;;
17239;SDS011;9943;54.378;18.604;2022-07-29T12:11:55;0.75;;;0.75;;
17239;SDS011;9943;54.378;18.604;2022-07-29T12:14:25;0.73;;;0.68;;
17239;SDS011;9943;54.378;18.604;2022-07-29T12:16:54;0.73;;;0.60;;
17239;SDS011;9943;54.378;18.604;2022-07-29T12:19:37;0.60;;;0.60;;
17239;SDS011;9943;54.378;18.604;2022-07-29T12:22:11;2.95;;;0.80;;
17239;SDS011;9943;54.378;18.604;2022-07-29T12:24:42;1.75;;;0.80;;
17239;SDS011;9943;54.378;18.604;2022-07-29T12:27:11;2.20;;;1.08;;
17239;SDS011;9943;54.378;18.604;2022-07-29T12:29:54;1.45;;;0.80;;
17239;SDS011;9943;54.378;18.604;2022-07-29T12:32:30;1.90;;;0.82;;
17239;SDS011;9943;54.378;18.604;2022-07-29T12:35:09;2.15;;;0.70;;
17239;SDS011;9943;54.378;18.604;2022-07-29T12:37:43;1.83;;;0.90;;
17239;SDS011;9943;54.378;18.604;2022-07-29T12:40:17;0.88;;;0.70;;
17239;SDS011;9943;54.378;18.604;2022-07-29T12:45:32;0.85;;;0.82;;
17239;SDS011;9943;54.378;18.604;2022-07-29T12:48:00;0.95;;;0.85;;
17239;SDS011;9943;54.378;18.604;2022-07-29T12:50:35;1.75;;;0.80;;
17239;SDS011;9943;54.378;18.604;2022-07-29T12:53:11;2.15;;;0.80;;
17239;SDS011;9943;54.378;18.604;2022-07-29T12:55:48;4.05;;;0.60;;
17239;SDS011;9943;54.378;18.604;2022-07-29T12:58:30;1.00;;;0.90;;
17239;SDS011;9943;54.378;18.604;2022-07-29T13:01:10;1.23;;;0.88;;
17239;SDS011;9943;54.378;18.604;2022-07-29T13:03:42;0.90;;;0.90;;
17239;SDS011;9943;54.378;18.604;2022-07-29T13:06:39;1.60;;;0.55;;
17239;SDS011;9943;54.378;18.604;2022-07-29T13:09:11;1.20;;;1.10;;
17239;SDS011;9943;54.378;18.604;2022-07-29T13:11:41;2.80;;;0.80;;
17239;SDS011;9943;54.378;18.604;2022-07-29T13:14:29;2.13;;;0.70;;
17239;SDS011;9943;54.378;18.604;2022-07-29T13:17:01;0.60;;;0.60;;
17239;SDS011;9943;54.378;18.604;2022-07-29T13:19:45;2.30;;;0.73;;
17239;SDS011;9943;54.378;18.604;2022-07-29T13:22:17;1.60;;;0.75;;
17239;SDS011;9943;54.378;18.604;2022-07-29T13:24:46;1.95;;;0.82;;
17239;SDS011;9943;54.378;18.604;2022-07-29T13:27:17;3.00;;;1.42;;
17239;SDS011;9943;54.378;18.604;2022-07-29T13:32:35;0.57;;;0.57;;
17239;SDS011;9943;54.378;18.604;2022-07-29T13:35:07;0.93;;;0.80;;
17239;SDS011;9943;54.378;18.604;2022-07-29T13:40:47;1.30;;;0.80;;
17239;SDS011;9943;54.378;18.604;2022-07-29T13:43:19;1.02;;;0.93;;
17239;SDS011;9943;54.378;18.604;2022-07-29T13:45:50;1.23;;;0.80;;
17239;SDS011;9943;54.378;18.604;2022-07-29T13:48:21;0.85;;;0.75;;
17239;SDS011;9943;54.378;18.604;2022-07-29T13:50:50;2.47;;;0.88;;
17239;SDS011;9943;54.378;18.604;2022-07-29T13:53:17;2.15;;;1.10;;
17239;SDS011;9943;54.378;18.604;2022-07-29T13:55:49;2.53;;;1.42;;
17239;SDS011;9943;54.378;18.604;2022-07-29T13:58:19;4.93;;;2.05;;
17239;SDS011;9943;54.378;18.604;2022-07-29T14:00:48;0.77;;;0.70;;
17239;SDS011;9943;54.378;18.604;2022-07-29T14:03:16;2.53;;;1.02;;
17239;SDS011;9943;54.378;18.604;2022-07-29T14:05:45;1.67;;;1.15;;
17239;SDS011;9943;54.378;18.604;2022-07-29T14:08:14;2.38;;;1.05;;
17239;SDS011;9943;54.378;18.604;2022-07-29T14:10:43;1.23;;;1.00;;
17239;SDS011;9943;54.378;18.604;2022-07-29T14:13:16;1.50;;;0.70;;
17239;SDS011;9943;54.378;18.604;2022-07-29T14:15:46;0.98;;;0.90;;
17239;SDS011;9943;54.378;18.604;2022-07-29T14:18:14;2.13;;;1.15;;
17239;SDS011;9943;54.378;18.604;2022-07-29T14:20:43;2.13;;;1.92;;
17239;SDS011;9943;54.378;18.604;2022-07-29T14:23:11;0.80;;;0.80;;
17239;SDS011;9943;54.378;18.604;2022-07-29T14:25:41;0.90;;;0.70;;
17239;SDS011;9943;54.378;18.604;2022-07-29T14:28:10;1.73;;;0.80;;
17239;SDS011;9943;54.378;18.604;2022-07-29T14:30:48;3.45;;;0.52;;
17239;SDS011;9943;54.378;18.604;2022-07-29T14:33:16;10.40;;;1.13;;
17239;SDS011;9943;54.378;18.604;2022-07-29T14:35:46;1.70;;;1.60;;
17239;SDS011;9943;54.378;18.604;2022-07-29T14:38:15;8.68;;;5.50;;
17239;SDS011;9943;54.378;18.604;2022-07-29T14:40:43;2.17;;;1.50;;
17239;SDS011;9943;54.378;18.604;2022-07-29T14:43:12;2.35;;;1.42;;
17239;SDS011;9943;54.378;18.604;2022-07-29T14:45:40;1.05;;;0.70;;
17239;SDS011;9943;54.378;18.604;2022-07-29T14:48:12;0.70;;;0.70;;
17239;SDS011;9943;54.378;18.604;2022-07-29T14:50:42;1.92;;;1.15;;
17239;SDS011;9943;54.378;18.604;2022-07-29T14:53:11;0.93;;;0.82;;
17239;SDS011;9943;54.378;18.604;2022-07-29T14:55:40;2.50;;;0.70;;
17239;SDS011;9943;54.378;18.604;2022-07-29T14:58:08;4.30;;;0.73;;
17239;SDS011;9943;54.378;18.604;2022-07-29T15:00:36;1.25;;;0.80;;
17239;SDS011;9943;54.378;18.604;2022-07-29T15:03:07;0.60;;;0.60;;
17239;SDS011;9943;54.378;18.604;2022-07-29T15:05:40;0.63;;;0.60;;
17239;SDS011;9943;54.378;18.604;2022-07-29T15:08:17;0.93;;;0.60;;
17239;SDS011;9943;54.378;18.604;2022-07-29T15:10:45;1.02;;;0.73;;
17239;SDS011;9943;54.378;18.604;2022-07-29T15:13:21;1.75;;;0.60;;
17239;SDS011;9943;54.378;18.604;2022-07-29T15:15:49;1.00;;;0.60;;
17239;SDS011;9943;54.378;18.604;2022-07-29T15:18:18;0.57;;;0.50;;
17239;SDS011;9943;54.378;18.604;2022-07-29T15:20:49;2.10;;;0.68;;
17239;SDS011;9943;54.378;18.604;2022-07-29T15:23:18;1.15;;;0.63;;
17239;SDS011;9943;54.378;18.604;2022-07-29T15:25:46;1.58;;;0.50;;
17239;SDS011;9943;54.378;18.604;2022-07-29T15:28:16;0.60;;;0.60;;
17239;SDS011;9943;54.378;18.604;2022-07-29T15:30:44;0.60;;;0.60;;
17239;SDS011;9943;54.378;18.604;2022-07-29T15:33:12;0.85;;;0.70;;
17239;SDS011;9943;54.378;18.604;2022-07-29T15:35:42;3.30;;;0.82;;
17239;SDS011;9943;54.378;18.604;2022-07-29T15:38:11;4.90;;;0.73;;
17239;SDS011;9943;54.378;18.604;2022-07-29T15:40:42;1.13;;;0.68;;
17239;SDS011;9943;54.378;18.604;2022-07-29T15:43:13;1.10;;;0.65;;
17239;SDS011;9943;54.378;18.604;2022-07-29T15:45:41;1.60;;;0.80;;
17239;SDS011;9943;54.378;18.604;2022-07-29T15:48:34;0.80;;;0.40;;
17239;SDS011;9943;54.378;18.604;2022-07-29T15:51:07;1.90;;;0.60;;
17239;SDS011;9943;54.378;18.604;2022-07-29T15:53:40;0.80;;;0.60;;
17239;SDS011;9943;54.378;18.604;2022-07-29T15:56:10;0.73;;;0.50;;
17239;SDS011;9943;54.378;18.604;2022-07-29T15:58:39;1.05;;;0.80;;
17239;SDS011;9943;54.378;18.604;2022-07-29T16:01:13;1.08;;;0.90;;
17239;SDS011;9943;54.378;18.604;2022-07-29T16:03:41;0.60;;;0.60;;
17239;SDS011;9943;54.378;18.604;2022-07-29T16:06:11;1.17;;;0.60;;